Marked Tree, Arkansas
Current Conditions -  °F | °C
As of 7:00 AM on Sunday 23 Nov 2014 (Local Time) from KJBR Reporting Station
Overcast Overcast  
Wind Chill: 57°   Ceiling: 1400
Heat Index: 57°   Visibility: 10mi
Dew Point: 55°   Wind: 12mph
Humidity: 94%   Direction: 130°SE
Pressure: 29.71"   Gusts: NA
Location:  35.53°N, 90.42°W
Report Text: KJBR 231300Z AUTO 13010KT 10SM OVC014 14/13 A2971 RMK AO2 RAE1257 P0000 $
Loading
Personal Weather Stations






























Interactive Weather Map New forecast layout! Learn more

10-Day Weather Forecast

Advertisements
Track Severe Weather on mobile